Nearby METAR Reports

 

KBJC - Broomfield/Jeffc, Colorado, USA
Distance from station: NNW 11mi, 17km
Updated: Mon, 18-Jan-2021 9:45pm MST
Overcast
Overcast
 Wind from calm
Wind: Calm
Temperature: 27°F , -3°C
Dew Point: 19°F , -7°C
Humidity: 74%
Barometer: 30.25 inHg , 1024.4 hPa
Clouds: Overcast
Visibility: 10 miles , 16 km
Cloud details: Mostly cloudy 1900 ft
Mostly cloudy 2500 ft
Overcast 5000 ft
2021/01/19 04:45 KBJC 190445Z 00000KT 10SM BKN019 BKN025 OVC050 M03/M07 A3025
KBKF - Buckley Angb/Den, Colorado, USA
Distance from station: E 16mi, 25km
Updated: Mon, 18-Jan-2021 8:58pm MST
Overcast
Overcast
 Wind from NE
Wind: NE 10 mph , 17 km/h
Temperature: 25°F , -4°C
Wind Chill: 15°F , -9°C
Dew Point: 18°F , -8°C
Humidity: 74%
Barometer: 30.22 inHg , 1023.4 hPa
Clouds: Overcast
Visibility: 10 miles , 16 km
Cloud details: Partly cloudy 5000 ft
Overcast 7000 ft
2021/01/19 03:58 KBKF 190358Z 05009KT 10SM SCT050 OVC070 M04/M08 A3022 RMK AO2A SLP257 T10401078
 
KAPA - Denver/Arapahoe, Colorado, USA
Distance from station: SE 16mi, 26km
Updated: Mon, 18-Jan-2021 8:53pm MST
Overcast
Overcast
 Wind from ENE
Wind: ENE 6 mph , 9 km/h
Temperature: 27°F , -3°C
Wind Chill: 20°F , -7°C
Dew Point: 19°F , -7°C
Humidity: 74%
Barometer: 30.21 inHg , 1023 hPa
Clouds: Overcast
Visibility: 10 miles , 16 km
Cloud details: Few Clouds 1700 ft
Overcast 6500 ft
2021/01/19 03:53 KAPA 190353Z 07005KT 10SM FEW017 OVC065 M03/M07 A3021 RMK AO2 SLP269 T10331072
KEIK - Erie Muni, Colorado, USA
Distance from station: N 18mi, 29km
Updated: Mon, 18-Jan-2021 9:35pm MST
Clear
Clear
 Wind from calm
Wind: Calm
Temperature: 27°F , -3°C
Dew Point: 18°F , -8°C
Humidity: 69%
Barometer: 30.26 inHg , 1024.7 hPa
Clouds: Clear
Visibility: 10 miles , 16 km
2021/01/19 04:35 KEIK 190435Z AUTO 00000KT 10SM CLR M03/M08 A3026 RMK AO2 T10291077
 
KBDU - Boulder Muni, Colorado, USA
Distance from station: NNW 22mi, 35km
Updated: Mon, 18-Jan-2021 9:35pm MST
Partly cloudy
Partly cloudy
 Wind from calm
Wind: Calm
Temperature: 28°F , -2°C
Dew Point: 19°F , -7°C
Humidity: 69%
Barometer: 30.24 inHg , 1024 hPa
Clouds: Partly cloudy
Visibility: 10 miles , 16 km
Cloud details: Partly cloudy 4800 ft
Partly cloudy 8500 ft
2021/01/19 04:35 KBDU 190435Z AUTO 00000KT 10SM SCT048 SCT085 M02/M07 A3024 RMK AO2
KDEN - Denver (dia), Colorado, USA
Distance from station: ENE 22mi, 35km
Updated: Mon, 18-Jan-2021 8:53pm MST
Overcast
Overcast
 Wind from NE
Wind: NE 9 mph , 15 km/h
Temperature: 25°F , -4°C
Wind Chill: 16°F , -9°C
Dew Point: 18°F , -8°C
Humidity: 74%
Barometer: 30.22 inHg , 1023.4 hPa
Clouds: Overcast
Visibility: 10 miles , 16 km
Cloud details: Partly cloudy 6000 ft
Overcast 8500 ft
2021/01/19 03:53 KDEN 190353Z 05008KT 10SM SCT060 OVC085 M04/M08 A3022 RMK AO2 SLP253 T10391083 $
 
KFTG - Denver F. Range, Colorado, USA
Distance from station: E 26mi, 42km
Updated: Wed, 29-Jan-2020 9:55pm MST
NOT Current
Overcast
Overcast
 Wind from W
Wind: W 7 mph , 11 km/h
Temperature: 30°F , -1°C
Wind Chill: 23°F , -5°C
Dew Point: 28°F , -2°C
Humidity: 93%
Barometer: 30.06 inHg , 1017.9 hPa
Clouds: Overcast
Visibility: 10 miles , 16 km
Cloud details: Partly cloudy 1300 ft
Mostly cloudy 2300 ft
Overcast 6000 ft
2020/01/30 04:55 KFTG 300455Z AUTO 26006KT 10SM SCT013 BKN023 OVC060 M01/M02 A3006 RMK AO2 T10111023
KLMO - Longmont/Vbrand, Colorado, USA
Distance from station: NNW 29mi, 47km
Updated: Mon, 18-Jan-2021 9:35pm MST
Partly cloudy
Partly cloudy
 Wind from calm
Wind: Calm
Temperature: 28°F , -2°C
Dew Point: 19°F , -7°C
Humidity: 69%
Barometer: 30.27 inHg , 1025.1 hPa
Clouds: Partly cloudy
Visibility: 10 miles , 16 km
Cloud details: Partly cloudy 9000 ft
2021/01/19 04:35 KLMO 190435Z AUTO 00000KT 10SM SCT090 M02/M07 A3027 RMK AO2 T10211067
 
K0CO - Berthoud Pass, Colorado, USA
Distance from station: W 39mi, 62km
Updated: Mon, 18-Jan-2021 9:35pm MST
Light snow, Overcast
Light snow, Overcast
 Wind from SSE
Wind: SSE 14 mph , 22 km/h, Gust: 21 mph , 33 km/h
Temperature: 1°F , -17°C
Wind Chill: -18°F , -28°C
Dew Point: -15°F , -26°C
Humidity: 46%
Barometer: 30.01 inHg , 1016.3 hPa
Summary: Light Snow
Clouds: Overcast
Visibility: 2 miles , 3 km
Cloud details: Mostly cloudy 300 ft
Mostly cloudy 800 ft
Overcast 1500 ft
2021/01/19 04:35 K0CO 190435Z AUTO 16012G18KT 2SM -SN BKN003 BKN008 OVC015 M17/M26 A3001 RMK AO2
KMNH - Monument/Elbert, Colorado, USA
Distance from station: SSE 43mi, 68km
Updated: Mon, 18-Jan-2021 9:35pm MST
Overcast
Overcast
 Wind from NNE
Wind: NNE 6 mph , 9 km/h
Temperature: 19°F , -7°C
Wind Chill: 11°F , -12°C
Dew Point: 16°F , -9°C
Humidity: 86%
Barometer: 30.21 inHg , 1023 hPa
Clouds: Overcast
Visibility: 10 miles , 16 km
Cloud details: Partly cloudy 1700 ft
Partly cloudy 4400 ft
Overcast 5000 ft
2021/01/19 04:35 KMNH 190435Z AUTO 03005KT 10SM SCT017 SCT044 OVC050 M07/M09 A3021 RMK AO2
 
KFNL - Ft Collins/Lovel, Colorado, USA
Distance from station: N 48mi, 78km
Updated: Mon, 18-Jan-2021 8:56pm MST
Clear
Clear
 Wind from N
Wind: N 9 mph , 15 km/h
Temperature: 25°F , -4°C
Wind Chill: 16°F , -9°C
Dew Point: 18°F , -8°C
Humidity: 74%
Barometer: 30.24 inHg , 1024 hPa
Clouds: Clear
Visibility: 10 miles , 16 km
2021/01/19 03:56 KFNL 190356Z 01008KT 10SM CLR M04/M08 A3024 RMK AO2 SLP261 T10441078 FZRANO